Milan, Tennessee
Current Conditions -  °F | °C
As of 4:00 PM on Sunday 25 Jan 2015 (Local Time) from KMKL Reporting Station
Light Rain Light Rain  
Wind Chill: 45°   Ceiling: 3000
Heat Index: 47°   Visibility: 4mi
Dew Point: 42°   Wind: 5mph
Humidity: 83%   Direction: 270°W
Pressure: 29.7"   Gusts: 23mph
Location:  35.92°N, 88.76°W
Report Text: KMKL 252200Z 27004G20KT 4SM -RA FEW024 BKN030 OVC050 08/06 A2970 RMK AO2 P0002 T00830056
Loading
Personal Weather Stations






























Interactive Weather Map New forecast layout! Learn more

10-Day Weather Forecast

Advertisements
Track Severe Weather on mobile